createdAt,value
2018-12-27T00:01:02.698Z,34.20
2018-12-27T00:03:33.639Z,44.10
2018-12-27T00:06:04.378Z,42.63
2018-12-27T00:08:35.658Z,39.53
2018-12-27T00:11:06.305Z,38.73
2018-12-27T00:13:37.907Z,39.50
2018-12-27T00:16:08.778Z,41.60
2018-12-27T00:18:39.605Z,36.07
2018-12-27T00:21:10.480Z,42.23
2018-12-27T00:23:41.302Z,43.57
2018-12-27T00:26:12.114Z,107.77
2018-12-27T00:28:43.012Z,39.43
2018-12-27T00:31:13.910Z,38.57
2018-12-27T00:33:44.746Z,35.43
2018-12-27T00:36:15.666Z,37.13
2018-12-27T00:38:46.594Z,46.07
2018-12-27T00:41:17.562Z,37.83
2018-12-27T00:43:48.422Z,39.87
2018-12-27T00:46:19.392Z,41.33
2018-12-27T00:48:50.327Z,36.73
2018-12-27T00:51:21.212Z,42.70
2018-12-27T00:53:52.146Z,44.63
2018-12-27T00:56:23.042Z,44.40
2018-12-27T00:58:53.854Z,36.50
2018-12-27T01:01:24.789Z,40.13
2018-12-27T01:03:55.589Z,44.10
2018-12-27T01:06:25.752Z,39.13
2018-12-27T01:08:57.262Z,41.30
2018-12-27T01:11:27.941Z,37.00
2018-12-27T01:13:58.740Z,35.47
2018-12-27T01:16:29.584Z,34.77
2018-12-27T01:19:00.449Z,35.70
2018-12-27T01:21:31.351Z,37.37
2018-12-27T01:24:03.102Z,37.27
2018-12-27T01:26:33.920Z,38.73
2018-12-27T01:29:04.794Z,32.83
2018-12-27T01:31:35.696Z,33.50
2018-12-27T01:34:06.605Z,35.37
2018-12-27T01:36:37.457Z,33.27
2018-12-27T01:39:08.262Z,33.97
2018-12-27T01:41:39.158Z,39.70
2018-12-27T01:44:10.034Z,34.20
2018-12-27T01:46:40.950Z,34.33
2018-12-27T01:49:11.862Z,30.67
2018-12-27T01:51:42.780Z,34.57
2018-12-27T01:54:13.681Z,37.53
2018-12-27T01:56:44.581Z,40.83
2018-12-27T01:59:15.313Z,39.90
2018-12-27T02:01:46.125Z,37.47
2018-12-27T02:04:17.006Z,34.53
2018-12-27T02:06:47.898Z,37.40
2018-12-27T02:09:18.772Z,34.30
2018-12-27T02:11:49.589Z,35.50
2018-12-27T02:14:20.470Z,39.23
2018-12-27T02:16:51.281Z,34.20
2018-12-27T02:19:22.065Z,39.53
2018-12-27T02:21:52.906Z,34.47
2018-12-27T02:24:23.638Z,37.93
2018-12-27T02:26:54.445Z,33.83
2018-12-27T02:29:25.234Z,41.33
2018-12-27T02:31:56.057Z,38.30
2018-12-27T02:34:26.851Z,37.77
2018-12-27T02:36:57.606Z,39.07
2018-12-27T02:39:28.337Z,35.27
2018-12-27T02:41:59.233Z,32.13
2018-12-27T02:44:30.036Z,32.70
2018-12-27T02:47:00.769Z,34.67
2018-12-27T02:49:31.646Z,34.30
2018-12-27T02:52:02.467Z,27.33
2018-12-27T02:54:33.326Z,34.57
2018-12-27T02:57:04.222Z,36.50
2018-12-27T02:59:35.104Z,30.40
2018-12-27T03:02:06.024Z,32.30
2018-12-27T03:04:36.881Z,31.53
2018-12-27T03:07:07.785Z,35.70
2018-12-27T03:09:38.653Z,33.47
2018-12-27T03:12:09.797Z,32.13
2018-12-27T03:14:40.675Z,34.80
2018-12-27T03:17:11.598Z,32.17
2018-12-27T03:19:42.481Z,31.17
2018-12-27T03:22:13.322Z,31.40
2018-12-27T03:24:44.133Z,38.27
2018-12-27T03:27:15.035Z,32.73
2018-12-27T03:29:45.908Z,37.50
2018-12-27T03:32:16.913Z,35.73
2018-12-27T03:34:47.774Z,30.30
2018-12-27T03:37:20.003Z,35.40
2018-12-27T03:39:50.898Z,38.47
2018-12-27T03:42:21.721Z,32.13
2018-12-27T03:44:52.598Z,33.67
2018-12-27T03:47:23.508Z,35.90
2018-12-27T03:49:54.414Z,34.23
2018-12-27T03:52:25.165Z,37.50
2018-12-27T03:54:56.048Z,30.30
2018-12-27T03:57:26.862Z,36.40
2018-12-27T03:59:57.741Z,36.07
2018-12-27T04:02:29.053Z,47.63
2018-12-27T04:04:59.852Z,40.43
2018-12-27T04:07:30.662Z,36.77
2018-12-27T04:10:02.431Z,36.90
2018-12-27T04:12:33.737Z,33.63
2018-12-27T04:15:10.419Z,35.37
2018-12-27T04:17:41.157Z,37.47
2018-12-27T04:20:11.798Z,39.23
2018-12-27T04:22:42.459Z,36.00
2018-12-27T04:25:13.085Z,33.07
2018-12-27T04:27:43.737Z,30.27
2018-12-27T04:30:14.373Z,34.00
2018-12-27T04:32:45.538Z,34.47
2018-12-27T04:35:16.458Z,34.67
2018-12-27T04:37:47.238Z,33.40
2018-12-27T04:40:17.955Z,36.07
2018-12-27T04:42:48.790Z,34.40
2018-12-27T04:45:19.375Z,36.83
2018-12-27T04:47:50.139Z,34.60
2018-12-27T04:50:20.327Z,31.47
2018-12-27T04:52:51.151Z,33.47
2018-12-27T04:55:22.019Z,33.40
2018-12-27T04:57:52.870Z,28.70
2018-12-27T05:00:23.630Z,36.40
2018-12-27T05:02:54.329Z,28.20
2018-12-27T05:05:25.080Z,33.17
2018-12-27T05:07:55.750Z,29.43
2018-12-27T05:10:27.218Z,33.77
2018-12-27T05:12:58.115Z,37.20
2018-12-27T05:15:28.923Z,36.27
2018-12-27T05:17:59.772Z,29.30
2018-12-27T05:20:31.834Z,41.40
2018-12-27T05:23:02.687Z,38.73
2018-12-27T05:25:33.585Z,38.03
2018-12-27T05:28:04.330Z,34.33
2018-12-27T05:30:35.052Z,38.50
2018-12-27T05:33:06.586Z,35.63
2018-12-27T05:35:37.527Z,34.43
2018-12-27T05:38:08.294Z,33.50
2018-12-27T05:40:39.041Z,40.00
2018-12-27T05:43:09.789Z,33.33
2018-12-27T05:45:40.558Z,42.40
2018-12-27T05:48:11.209Z,36.33
2018-12-27T05:50:41.931Z,43.13
2018-12-27T05:53:12.657Z,37.47
2018-12-27T05:55:43.349Z,32.17
2018-12-27T05:58:14.124Z,36.47
2018-12-27T06:00:45.000Z,33.53
2018-12-27T06:03:15.882Z,37.00
2018-12-27T06:05:46.979Z,34.67
2018-12-27T06:08:17.876Z,34.40
2018-12-27T06:10:48.764Z,33.97
2018-12-27T06:13:19.668Z,33.70
2018-12-27T06:15:50.518Z,34.83
2018-12-27T06:18:21.317Z,33.83
2018-12-27T06:20:52.215Z,37.77
2018-12-27T06:23:23.094Z,43.83
2018-12-27T06:25:55.478Z,37.53
2018-12-27T06:28:26.137Z,36.50
2018-12-27T06:30:57.747Z,35.37
2018-12-27T06:33:28.558Z,32.93
2018-12-27T06:35:59.527Z,37.70
2018-12-27T06:38:30.511Z,53.87
2018-12-27T06:41:01.450Z,67.70
2018-12-27T06:43:32.197Z,52.47
2018-12-27T06:46:03.129Z,34.53
2018-12-27T06:48:33.982Z,41.80
2018-12-27T06:51:04.649Z,44.23
2018-12-27T06:53:35.358Z,33.70
2018-12-27T06:56:06.035Z,45.37
2018-12-27T06:58:37.851Z,39.30
2018-12-27T07:01:08.957Z,41.03
2018-12-27T07:03:39.589Z,38.53
2018-12-27T07:06:10.267Z,32.40
2018-12-27T07:08:40.986Z,30.03
2018-12-27T07:11:11.717Z,23.50
2018-12-27T07:13:42.425Z,22.30
2018-12-27T07:16:13.155Z,24.30
2018-12-27T07:18:43.877Z,37.37
2018-12-27T07:21:19.652Z,85.57
2018-12-27T07:30:53.325Z,35.67
2018-12-27T07:33:23.530Z,36.00
2018-12-27T07:35:54.402Z,32.70
2018-12-27T07:38:25.124Z,41.23
2018-12-27T07:54:28.245Z,52.00
2018-12-27T08:00:19.602Z,37.50
2018-12-27T08:02:50.329Z,36.43
2018-12-27T08:05:20.969Z,35.17
2018-12-27T08:07:51.705Z,36.77
2018-12-27T08:41:58.791Z,41.90
2018-12-27T08:44:29.678Z,43.60
2018-12-27T08:47:25.659Z,29.80
2018-12-27T08:49:56.207Z,30.80
2018-12-27T08:52:26.930Z,33.47
2018-12-27T08:55:12.894Z,39.80
2018-12-27T08:57:43.629Z,33.97
2018-12-27T09:00:14.262Z,30.27
2018-12-27T09:02:53.246Z,29.67
2018-12-27T09:05:25.053Z,29.60
2018-12-27T09:07:55.873Z,25.53
2018-12-27T09:10:26.000Z,28.93
2018-12-27T09:12:56.690Z,27.40
2018-12-27T09:15:27.409Z,30.80
2018-12-27T09:17:58.069Z,25.03
2018-12-27T09:20:28.708Z,27.73
2018-12-27T09:23:16.817Z,28.10
2018-12-27T09:25:47.543Z,29.70
2018-12-27T09:28:18.405Z,28.33
2018-12-27T09:34:26.438Z,24.53
2018-12-27T09:37:01.417Z,28.97
2018-12-27T09:39:32.149Z,27.20
2018-12-27T09:42:02.918Z,29.77
2018-12-27T09:44:48.905Z,32.20
2018-12-27T09:47:22.677Z,34.47
2018-12-27T09:50:44.401Z,30.93
2018-12-27T09:53:41.774Z,33.77
2018-12-27T09:57:05.277Z,32.20
2018-12-27T10:00:23.027Z,24.43
2018-12-27T10:03:21.922Z,32.60
2018-12-27T10:06:01.255Z,29.60
2018-12-27T10:08:35.629Z,27.40
2018-12-27T10:11:06.326Z,29.00
2018-12-27T10:13:37.061Z,28.90
2018-12-27T10:16:07.687Z,27.33
2018-12-27T10:18:38.418Z,28.13
2018-12-27T10:21:09.137Z,24.83
2018-12-27T10:23:39.710Z,26.50
2018-12-27T10:26:10.412Z,24.47
2018-12-27T10:28:41.073Z,26.53
2018-12-27T10:31:11.673Z,23.03
2018-12-27T10:33:42.328Z,23.33
2018-12-27T10:36:13.023Z,24.87
2018-12-27T10:38:43.779Z,27.77
2018-12-27T10:41:14.485Z,23.07
2018-12-27T10:43:45.061Z,24.67
2018-12-27T10:46:21.576Z,27.13
2018-12-27T10:48:51.718Z,25.80
2018-12-27T10:51:22.153Z,24.87
2018-12-27T10:53:52.861Z,27.10
2018-12-27T10:56:23.545Z,22.10
2018-12-27T10:58:58.234Z,23.77
2018-12-27T11:01:30.405Z,27.70
2018-12-27T11:04:01.061Z,26.70
2018-12-27T11:06:31.621Z,25.57
2018-12-27T11:09:02.725Z,22.00
2018-12-27T11:11:33.467Z,26.20
2018-12-27T11:14:04.172Z,26.20
2018-12-27T11:16:34.795Z,24.57
2018-12-27T11:19:06.517Z,20.80
2018-12-27T11:21:37.217Z,24.10
2018-12-27T11:24:07.926Z,21.50
2018-12-27T11:26:38.613Z,25.00
2018-12-27T11:29:09.361Z,20.97
2018-12-27T11:31:40.062Z,21.83
2018-12-27T11:34:10.839Z,27.03
2018-12-27T11:36:42.532Z,24.20
2018-12-27T11:39:13.221Z,17.90
2018-12-27T11:41:43.993Z,21.20
2018-12-27T11:44:14.570Z,21.83
2018-12-27T11:46:45.498Z,15.77
2018-12-27T11:49:16.229Z,20.40
2018-12-27T11:51:46.860Z,19.00
2018-12-27T11:54:17.596Z,18.83
2018-12-27T11:56:48.385Z,21.00
2018-12-27T11:59:19.269Z,19.57
2018-12-27T12:01:51.060Z,17.90
2018-12-27T12:04:21.638Z,22.00
2018-12-27T12:06:52.637Z,19.37
2018-12-27T12:09:23.527Z,22.83
2018-12-27T12:11:54.216Z,20.03
2018-12-27T12:14:24.952Z,22.03
2018-12-27T12:16:55.633Z,22.77
2018-12-27T12:19:26.281Z,20.50
2018-12-27T12:21:56.913Z,24.03
2018-12-27T12:24:27.557Z,23.80
2018-12-27T12:26:58.185Z,21.23
2018-12-27T12:29:28.903Z,23.90
2018-12-27T12:31:59.588Z,23.17
2018-12-27T12:34:30.166Z,27.30
2018-12-27T12:37:01.177Z,23.73
2018-12-27T12:39:31.817Z,24.40
2018-12-27T12:42:02.442Z,23.87
2018-12-27T12:44:33.194Z,29.60
2018-12-27T12:47:03.953Z,26.00
2018-12-27T12:49:34.641Z,24.90
2018-12-27T12:52:05.282Z,21.63
2018-12-27T12:54:35.938Z,22.47
2018-12-27T12:57:06.589Z,25.60
2018-12-27T12:59:37.209Z,26.37
2018-12-27T13:02:07.749Z,20.23
2018-12-27T13:04:38.401Z,29.87
2018-12-27T13:07:09.012Z,23.50
2018-12-27T13:09:39.684Z,21.73
2018-12-27T13:12:10.221Z,19.50
2018-12-27T13:14:40.877Z,23.10
2018-12-27T13:17:11.573Z,22.03
2018-12-27T13:19:42.191Z,22.43
2018-12-27T13:22:12.916Z,21.33
2018-12-27T13:24:43.528Z,20.23
2018-12-27T13:27:14.179Z,28.23
2018-12-27T13:29:44.869Z,23.10
2018-12-27T13:32:15.525Z,22.73
2018-12-27T13:34:48.858Z,22.97
2018-12-27T13:37:19.595Z,23.00
2018-12-27T13:39:50.285Z,21.40
2018-12-27T13:42:22.065Z,20.47
2018-12-27T13:44:53.091Z,26.10
2018-12-27T13:47:23.934Z,21.40
2018-12-27T13:49:54.695Z,19.30
2018-12-27T13:52:25.348Z,22.73
2018-12-27T13:54:56.210Z,17.67
2018-12-27T13:57:27.209Z,22.73
2018-12-27T13:59:58.200Z,23.00
2018-12-27T14:02:29.097Z,18.93
2018-12-27T14:04:59.794Z,20.70
2018-12-27T14:07:30.516Z,21.43
2018-12-27T14:10:01.250Z,24.53
2018-12-27T14:12:32.266Z,23.57
2018-12-27T14:15:02.962Z,27.27
2018-12-27T14:17:34.808Z,19.30
2018-12-27T14:20:07.159Z,22.00
2018-12-27T14:22:37.897Z,23.20
2018-12-27T14:25:08.537Z,20.20
2018-12-27T14:27:39.378Z,21.27
2018-12-27T14:30:10.132Z,23.30
2018-12-27T14:32:40.866Z,20.40
2018-12-27T14:35:11.756Z,21.80
2018-12-27T14:37:42.696Z,23.47
2018-12-27T14:40:13.289Z,35.07
2018-12-27T14:42:44.566Z,40.60
2018-12-27T14:45:15.377Z,47.13
2018-12-27T14:47:46.042Z,46.27
2018-12-27T14:50:16.797Z,31.83
2018-12-27T14:52:47.525Z,30.40
2018-12-27T14:55:18.325Z,33.03
2018-12-27T14:57:49.109Z,36.47
2018-12-27T15:00:19.825Z,39.17
2018-12-27T15:02:50.467Z,33.70
2018-12-27T15:05:21.434Z,29.97
2018-12-27T15:07:52.081Z,28.50
2018-12-27T15:10:22.798Z,29.10
2018-12-27T15:12:53.526Z,33.50
2018-12-27T15:15:24.162Z,29.30
2018-12-27T15:17:54.870Z,33.30
2018-12-27T15:20:26.546Z,34.00
2018-12-27T15:22:57.273Z,38.87
2018-12-27T15:25:27.961Z,37.63
2018-12-27T15:27:58.534Z,42.70
2018-12-27T15:30:29.241Z,52.00
2018-12-27T15:32:59.876Z,42.27
2018-12-27T15:35:30.516Z,41.10
2018-12-27T15:38:01.264Z,41.13
2018-12-27T15:40:31.813Z,45.10
2018-12-27T15:43:02.468Z,33.47
2018-12-27T15:45:33.099Z,47.70
2018-12-27T15:48:03.821Z,39.87
2018-12-27T15:50:34.453Z,40.50
2018-12-27T15:53:05.101Z,37.97
2018-12-27T15:55:35.709Z,37.77
2018-12-27T15:58:06.356Z,35.23
2018-12-27T16:00:37.054Z,35.63
2018-12-27T16:03:07.637Z,32.27
2018-12-27T16:05:38.428Z,31.03
2018-12-27T16:08:09.077Z,35.90
2018-12-27T16:10:40.802Z,38.03
2018-12-27T16:13:11.581Z,32.70
2018-12-27T16:15:42.310Z,32.40
2018-12-27T16:18:13.045Z,44.00
2018-12-27T16:20:43.719Z,41.43
2018-12-27T16:23:14.452Z,39.30
2018-12-27T16:25:45.146Z,43.90
2018-12-27T16:28:16.349Z,44.43
2018-12-27T16:30:47.939Z,48.07
2018-12-27T16:33:18.728Z,51.53
2018-12-27T16:35:50.473Z,46.97
2018-12-27T16:38:21.595Z,46.20
2018-12-27T16:40:52.344Z,48.87
2018-12-27T16:43:23.017Z,43.47
2018-12-27T16:45:53.721Z,40.00
2018-12-27T16:48:24.205Z,41.97
2018-12-27T16:50:55.029Z,37.10
2018-12-27T16:53:25.726Z,42.50
2018-12-27T16:55:56.389Z,45.23
2018-12-27T16:58:27.099Z,40.10
2018-12-27T17:00:57.806Z,48.57
2018-12-27T17:03:29.075Z,50.23
2018-12-27T17:05:59.783Z,56.50
2018-12-27T17:08:31.610Z,64.00
2018-12-27T17:11:03.182Z,59.27
2018-12-27T17:13:34.018Z,67.97
2018-12-27T17:16:04.661Z,56.73
2018-12-27T17:18:35.429Z,61.03
2018-12-27T17:21:06.054Z,55.10
2018-12-27T17:23:36.785Z,56.80
2018-12-27T17:26:07.484Z,57.63
2018-12-27T17:28:38.142Z,54.70
2018-12-27T17:31:08.869Z,53.80
2018-12-27T17:33:39.637Z,55.27
2018-12-27T17:36:10.258Z,55.57
2018-12-27T17:38:41.045Z,55.80
2018-12-27T17:41:11.746Z,49.97
2018-12-27T17:43:42.419Z,54.80
2018-12-27T17:46:13.067Z,52.77
2018-12-27T17:48:43.836Z,51.47
2018-12-27T17:51:14.622Z,56.07
2018-12-27T17:53:45.393Z,55.40
2018-12-27T17:56:16.038Z,58.03
2018-12-27T17:58:47.181Z,56.00
2018-12-27T18:01:17.817Z,57.03
2018-12-27T18:03:48.549Z,53.50
2018-12-27T18:06:19.119Z,52.33
2018-12-27T18:08:49.882Z,58.93
2018-12-27T18:11:20.518Z,53.20
2018-12-27T18:13:51.307Z,52.83
2018-12-27T18:16:22.022Z,51.77
2018-12-27T18:18:52.816Z,61.80
2018-12-27T18:21:23.466Z,50.00
2018-12-27T18:23:54.354Z,65.47
2018-12-27T18:26:24.482Z,53.50
2018-12-27T18:28:55.156Z,54.77
2018-12-27T18:31:25.867Z,54.03
2018-12-27T18:33:57.904Z,58.53
2018-12-27T18:36:28.633Z,51.47
2018-12-27T18:38:59.429Z,54.27
2018-12-27T18:41:30.099Z,55.97
2018-12-27T18:44:00.832Z,60.77
2018-12-27T18:46:31.585Z,69.00
2018-12-27T18:49:03.988Z,54.73
2018-12-27T18:51:35.106Z,50.70
2018-12-27T18:54:06.248Z,55.20
2018-12-27T18:56:45.321Z,53.00
2018-12-27T18:59:25.569Z,46.87
2018-12-27T19:01:56.326Z,56.33
2018-12-27T19:04:32.287Z,50.90
2018-12-27T19:07:04.991Z,61.57
2018-12-27T19:09:40.992Z,72.40
2018-12-27T19:12:47.801Z,61.40
2018-12-27T19:15:22.254Z,69.27
2018-12-27T19:18:14.718Z,51.20
2018-12-27T19:20:49.991Z,48.17
2018-12-27T19:23:22.347Z,54.93
2018-12-27T19:25:53.426Z,56.63
2018-12-27T19:28:38.657Z,53.83
2018-12-27T19:31:26.804Z,53.07
2018-12-27T19:33:58.611Z,54.83
2018-12-27T19:36:37.686Z,50.40
2018-12-27T19:39:07.707Z,51.77
2018-12-27T19:41:38.574Z,53.20
2018-12-27T19:44:11.832Z,52.77
2018-12-27T19:46:45.098Z,49.20
2018-12-27T19:49:16.402Z,48.57
2018-12-27T19:51:49.381Z,50.80
2018-12-27T19:54:20.694Z,48.50
2018-12-27T19:57:02.550Z,46.80
2018-12-27T19:59:34.171Z,52.07
2018-12-27T20:02:06.270Z,48.10
2018-12-27T20:04:40.452Z,44.63
2018-12-27T20:07:13.711Z,49.20
2018-12-27T20:09:53.245Z,45.63
2018-12-27T20:12:27.276Z,46.90
2018-12-27T20:14:58.607Z,50.20
2018-12-27T20:17:33.071Z,52.30
2018-12-27T20:20:14.079Z,51.43
2018-12-27T20:22:41.217Z,52.50
2018-12-27T20:25:13.334Z,53.27
2018-12-27T20:27:45.632Z,56.27
2018-12-27T20:30:16.541Z,66.20
2018-12-27T20:32:47.796Z,66.73
2018-12-27T20:35:18.953Z,62.40
2018-12-27T20:37:49.886Z,62.20
2018-12-27T20:40:28.635Z,56.53
2018-12-27T20:43:01.770Z,59.80
2018-12-27T20:45:42.827Z,55.20
2018-12-27T20:48:16.094Z,52.30
2018-12-27T20:50:52.039Z,54.87
2018-12-27T20:53:24.668Z,49.40
2018-12-27T20:55:55.895Z,43.57
2018-12-27T20:58:26.646Z,45.23
2018-12-27T21:00:58.584Z,45.80
2018-12-27T21:03:29.323Z,45.57
2018-12-27T21:06:00.037Z,40.47
2018-12-27T21:08:30.795Z,45.50
2018-12-27T21:11:01.430Z,41.87
2018-12-27T21:13:32.216Z,46.40
2018-12-27T21:16:07.236Z,49.33
2018-12-27T21:18:38.007Z,58.10
2018-12-27T21:21:08.146Z,77.27
2018-12-27T21:23:38.789Z,61.07
2018-12-27T21:26:09.437Z,60.03
2018-12-27T21:28:41.339Z,59.13
2018-12-27T21:31:12.029Z,55.10
2018-12-27T21:33:43.073Z,53.03
2018-12-27T21:36:13.818Z,60.60
2018-12-27T21:38:44.570Z,58.33
2018-12-27T21:41:15.217Z,56.20
2018-12-27T21:43:48.032Z,64.87
2018-12-27T21:46:18.741Z,54.73
2018-12-27T21:48:49.392Z,69.73
2018-12-27T21:51:20.108Z,67.53
2018-12-27T21:53:50.761Z,60.77
2018-12-27T21:56:21.398Z,59.93
2018-12-27T21:58:52.077Z,57.67
2018-12-27T22:01:23.233Z,67.70
2018-12-27T22:03:53.965Z,60.63
2018-12-27T22:06:24.682Z,56.67
2018-12-27T22:08:55.401Z,56.47
2018-12-27T22:11:26.040Z,53.03
2018-12-27T22:13:56.842Z,48.87
2018-12-27T22:16:27.614Z,46.87
2018-12-27T22:18:58.274Z,49.97
2018-12-27T22:21:28.986Z,46.53
2018-12-27T22:23:59.712Z,47.37
2018-12-27T22:26:30.427Z,56.10
2018-12-27T22:29:01.164Z,52.90
2018-12-27T22:31:31.868Z,50.47
2018-12-27T22:34:02.525Z,51.30
2018-12-27T22:36:33.234Z,50.17
2018-12-27T22:39:05.445Z,51.60
2018-12-27T22:41:36.097Z,40.23
2018-12-27T22:44:06.834Z,45.00
2018-12-27T22:46:37.461Z,45.03
2018-12-27T22:49:08.117Z,41.77
2018-12-27T22:51:38.684Z,49.27
2018-12-27T22:54:09.414Z,47.27
2018-12-27T22:56:40.124Z,47.27
2018-12-27T22:59:10.833Z,42.33
2018-12-27T23:01:41.470Z,43.00
2018-12-27T23:04:12.058Z,41.50
2018-12-27T23:06:42.784Z,44.60
2018-12-27T23:09:13.537Z,46.00
2018-12-27T23:11:44.161Z,51.97
2018-12-27T23:14:14.885Z,46.30
2018-12-27T23:16:45.590Z,53.43
2018-12-27T23:19:16.320Z,52.30
2018-12-27T23:21:47.020Z,53.70
2018-12-27T23:24:17.682Z,57.67
2018-12-27T23:26:48.257Z,56.43
2018-12-27T23:29:18.929Z,55.33
2018-12-27T23:31:49.625Z,60.27
2018-12-27T23:34:20.357Z,58.63
2018-12-27T23:36:50.951Z,62.43
2018-12-27T23:39:21.626Z,57.83
2018-12-27T23:41:52.357Z,56.53
2018-12-27T23:44:23.065Z,63.73
2018-12-27T23:46:53.738Z,54.80
2018-12-27T23:49:24.373Z,53.20
2018-12-27T23:51:55.107Z,43.37
2018-12-27T23:54:25.744Z,47.77
2018-12-27T23:56:56.502Z,47.50
2018-12-27T23:59:27.205Z,49.00
